Time;durP1;ratioP1;P1;durP2;ratioP2;P2;SDS_P1;SDS_P2;PMS_P1;PMS_P2;Temp;Humidity;BMP_temperature;BMP_pressure;BME280_temperature;BME280_humidity;BME280_pressure;Samples;Min_cycle;Max_cycle;Signal;HPM_P1;HPM_P2
2021/08/02 00:01:29;;;;;;;6.67;5.97;;;15.30;99.90;;;;;;5013916;28;20446;-73
2021/08/02 00:04:07;;;;;;;6.23;5.60;;;15.30;99.90;;;;;;5012360;28;20960;-73
2021/08/02 00:06:50;;;;;;;8.27;5.37;;;15.40;99.90;;;;;;5014464;28;20935;-73
2021/08/02 00:09:19;;;;;;;5.40;4.87;;;15.30;99.90;;;;;;5015275;28;20442;-73
2021/08/02 00:12:03;;;;;;;6.40;4.87;;;15.30;99.90;;;;;;5011307;28;20475;-73
2021/08/02 00:14:30;;;;;;;6.60;5.17;;;15.40;99.90;;;;;;5013059;28;20477;-73
2021/08/02 00:16:56;;;;;;;9.40;5.40;;;15.40;99.90;;;;;;5013796;28;20451;-73
2021/08/02 00:19:25;;;;;;;5.40;4.77;;;15.40;99.90;;;;;;5014288;28;20934;-73
2021/08/02 00:21:51;;;;;;;6.50;5.87;;;15.30;99.90;;;;;;5012898;28;20442;-73
2021/08/02 00:24:18;;;;;;;6.00;5.30;;;15.20;99.90;;;;;;5011345;28;20826;-73
2021/08/02 00:26:44;;;;;;;8.53;5.83;;;15.10;99.90;;;;;;5015475;28;20536;-73
2021/08/02 00:29:11;;;;;;;7.87;5.93;;;15.20;99.90;;;;;;5014577;28;20483;-73
2021/08/02 00:31:37;;;;;;;10.40;6.40;;;15.20;99.90;;;;;;5019507;28;20498;-73
2021/08/02 00:34:04;;;;;;;7.73;6.37;;;15.10;99.90;;;;;;5019094;28;20530;-73
2021/08/02 00:36:33;;;;;;;10.53;6.30;;;15.10;99.90;;;;;;5019543;28;20447;-73
2021/08/02 00:39:09;;;;;;;10.27;7.60;;;15.10;99.90;;;;;;5015994;28;20442;-73
2021/08/02 00:41:47;;;;;;;9.87;6.23;;;15.20;99.90;;;;;;5012794;28;20495;-73
2021/08/02 00:44:44;;;;;;;9.50;7.40;;;15.20;99.90;;;;;;5018737;28;20461;-73
2021/08/02 00:47:13;;;;;;;10.67;7.43;;;15.10;99.90;;;;;;5015625;28;20438;-73
2021/08/02 00:49:47;;;;;;;10.60;9.03;;;15.10;99.90;;;;;;5019264;28;20863;-73
2021/08/02 00:52:14;;;;;;;12.93;8.70;;;15.10;99.90;;;;;;5013562;28;20496;-73
2021/08/02 00:54:41;;;;;;;11.80;9.70;;;15.10;99.90;;;;;;5010778;28;20804;-73
2021/08/02 00:57:10;;;;;;;14.70;9.73;;;15.10;99.90;;;;;;5019882;28;20442;-73
2021/08/02 00:59:40;;;;;;;11.07;9.00;;;15.10;99.90;;;;;;5016619;28;20453;-73
2021/08/02 01:02:07;;;;;;;13.43;10.30;;;15.10;99.90;;;;;;5016852;28;20449;-73
2021/08/02 01:04:36;;;;;;;15.80;12.00;;;15.00;99.90;;;;;;5014546;28;20485;-73
2021/08/02 01:07:08;;;;;;;13.80;10.97;;;15.00;99.90;;;;;;5014723;28;20442;-73
2021/08/02 01:09:45;;;;;;;18.30;12.30;;;15.00;99.90;;;;;;5036105;28;20839;-73
2021/08/02 01:12:12;;;;;;;14.67;10.90;;;15.00;99.90;;;;;;5016833;28;20858;-73
2021/08/02 01:14:38;;;;;;;12.90;11.00;;;15.00;99.90;;;;;;5017149;28;20872;-74
2021/08/02 01:17:08;;;;;;;11.90;9.83;;;14.90;99.90;;;;;;5017245;28;20470;-73
2021/08/02 01:19:34;;;;;;;14.57;11.30;;;14.90;99.90;;;;;;5020618;28;20905;-73
2021/08/02 01:22:03;;;;;;;16.30;9.30;;;14.90;99.90;;;;;;5015339;28;20876;-73
2021/08/02 01:24:35;;;;;;;12.97;8.03;;;14.80;99.90;;;;;;5010300;28;20454;-73
2021/08/02 01:27:25;;;;;;;12.90;8.50;;;14.80;99.90;;;;;;5020466;28;20439;-72
2021/08/02 01:30:19;;;;;;;12.80;8.80;;;14.70;99.90;;;;;;5013969;28;20516;-73
2021/08/02 01:32:50;;;;;;;10.80;7.50;;;14.70;99.90;;;;;;5028667;28;20441;-73
2021/08/02 01:35:17;;;;;;;13.50;8.17;;;14.70;99.90;;;;;;5018591;28;20493;-73
2021/08/02 01:37:44;;;;;;;15.77;9.07;;;14.70;99.90;;;;;;5017305;28;20435;-73
2021/08/02 01:40:12;;;;;;;12.40;9.67;;;14.70;99.90;;;;;;5028987;28;20440;-73
2021/08/02 01:42:40;;;;;;;12.00;9.20;;;14.70;99.90;;;;;;5014407;28;20461;-73
2021/08/02 01:45:10;;;;;;;9.70;7.80;;;14.70;99.90;;;;;;5013027;28;20497;-73
2021/08/02 01:47:41;;;;;;;9.37;6.00;;;14.70;99.90;;;;;;5012226;28;20849;-73
2021/08/02 01:50:35;;;;;;;12.20;7.20;;;14.70;99.90;;;;;;5018254;28;20446;-73
2021/08/02 01:53:17;;;;;;;9.73;6.60;;;14.70;99.90;;;;;;5007723;28;20444;-73
2021/08/02 01:55:50;;;;;;;8.17;6.10;;;14.70;99.90;;;;;;5013345;28;20587;-73
2021/08/02 01:58:17;;;;;;;9.17;5.80;;;14.70;99.90;;;;;;5014769;28;20486;-73
2021/08/02 02:00:50;;;;;;;7.30;5.17;;;14.70;99.90;;;;;;5009899;28;20458;-73
2021/08/02 02:03:23;;;;;;;5.77;5.10;;;14.70;99.90;;;;;;5017267;28;20521;-73
2021/08/02 02:06:08;;;;;;;11.50;5.20;;;14.60;99.90;;;;;;5017034;28;21101;-73
2021/08/02 02:08:51;;;;;;;6.50;4.80;;;14.60;99.90;;;;;;5014500;28;21211;-73
2021/08/02 02:11:27;;;;;;;8.00;4.83;;;14.60;99.90;;;;;;5015971;28;20482;-73
2021/08/02 02:14:02;;;;;;;8.20;4.20;;;14.50;99.90;;;;;;5008553;28;20466;-73
2021/08/02 02:16:32;;;;;;;6.80;4.83;;;14.40;99.90;;;;;;5011949;28;20492;-73
2021/08/02 02:19:03;;;;;;;5.77;3.97;;;14.20;99.90;;;;;;5012516;28;20453;-73
2021/08/02 02:21:31;;;;;;;6.10;4.30;;;14.30;99.90;;;;;;5017420;28;20438;-73
2021/08/02 02:24:02;;;;;;;5.70;4.53;;;14.20;99.90;;;;;;5030358;28;20434;-73
2021/08/02 02:26:32;;;;;;;5.50;4.60;;;14.20;99.90;;;;;;5011388;28;20474;-73
2021/08/02 02:29:10;;;;;;;6.90;4.83;;;14.10;99.90;;;;;;5016233;28;20516;-73
2021/08/02 02:31:37;;;;;;;11.47;3.87;;;14.00;99.90;;;;;;5013349;28;20445;-73
2021/08/02 02:34:06;;;;;;;10.57;4.93;;;14.00;99.90;;;;;;5016076;28;20442;-73
2021/08/02 02:36:34;;;;;;;5.50;4.07;;;14.10;99.90;;;;;;5014997;28;20529;-73
2021/08/02 02:39:02;;;;;;;8.00;4.37;;;14.20;99.90;;;;;;5012680;28;20441;-73
2021/08/02 02:41:28;;;;;;;10.50;4.20;;;14.20;99.90;;;;;;5015698;28;20547;-74
2021/08/02 02:43:55;;;;;;;7.10;4.67;;;14.20;99.90;;;;;;5012397;28;20820;-73
2021/08/02 02:46:24;;;;;;;7.13;4.93;;;14.30;99.90;;;;;;5027531;28;20449;-73
2021/08/02 02:48:54;;;;;;;7.10;4.50;;;14.30;99.90;;;;;;5018336;28;20438;-73
2021/08/02 02:51:21;;;;;;;5.33;4.43;;;14.30;99.90;;;;;;5014759;28;20456;-73
2021/08/02 02:53:49;;;;;;;9.00;4.83;;;14.40;99.90;;;;;;5012081;28;20433;-73
2021/08/02 02:56:17;;;;;;;9.13;5.00;;;14.40;99.90;;;;;;5033016;28;21002;-73
2021/08/02 02:58:44;;;;;;;8.10;4.70;;;14.40;99.90;;;;;;5008802;28;20841;-73
2021/08/02 03:01:14;;;;;;;9.27;5.00;;;14.30;99.90;;;;;;5016938;28;20501;-73
2021/08/02 03:03:44;;;;;;;12.77;4.67;;;14.30;99.90;;;;;;5015993;28;20939;-73
2021/08/02 03:06:12;;;;;;;6.53;4.40;;;14.30;99.90;;;;;;5014641;28;20774;-73
2021/08/02 03:08:40;;;;;;;6.10;4.63;;;14.40;99.90;;;;;;5011813;28;21295;-73
2021/08/02 03:11:07;;;;;;;8.43;4.30;;;14.30;99.90;;;;;;5011648;28;20549;-73
2021/08/02 03:13:32;;;;;;;9.63;4.37;;;14.30;99.90;;;;;;5017731;28;20462;-72
2021/08/02 03:15:58;;;;;;;5.97;4.40;;;14.30;99.90;;;;;;5012189;28;20435;-73
2021/08/02 03:18:24;;;;;;;8.00;4.00;;;14.30;99.90;;;;;;5012941;28;20190;-73
2021/08/02 03:20:49;;;;;;;5.30;4.60;;;14.20;99.90;;;;;;5014737;28;20188;-73
2021/08/02 03:23:29;;;;;;;10.30;5.20;;;14.30;99.90;;;;;;5014885;28;20446;-73
2021/08/02 03:26:27;;;;;;;6.87;4.63;;;14.30;99.90;;;;;;5012658;28;20211;-73
2021/08/02 03:28:55;;;;;;;13.17;5.33;;;14.30;99.90;;;;;;5012449;28;20517;-73
2021/08/02 03:31:28;;;;;;;8.47;6.00;;;14.30;99.90;;;;;;5014799;28;20450;-73
2021/08/02 03:33:55;;;;;;;9.53;5.77;;;14.30;99.90;;;;;;5015285;28;20447;-73
2021/08/02 03:36:23;;;;;;;9.40;6.00;;;14.30;99.90;;;;;;5014950;28;20544;-73
2021/08/02 03:38:51;;;;;;;24.07;5.00;;;14.30;99.90;;;;;;5011946;28;20499;-73
2021/08/02 03:41:19;;;;;;;9.63;5.73;;;14.30;99.90;;;;;;5017667;28;21160;-73
2021/08/02 03:43:46;;;;;;;5.90;5.03;;;14.30;99.90;;;;;;5014521;28;20672;-75
2021/08/02 03:46:13;;;;;;;10.77;4.70;;;14.40;99.90;;;;;;5014622;28;20564;-73
2021/08/02 03:48:39;;;;;;;8.97;5.13;;;14.40;99.90;;;;;;5013005;28;20453;-73
2021/08/02 03:51:06;;;;;;;5.83;4.90;;;14.40;99.90;;;;;;5012951;28;20452;-73
2021/08/02 03:53:42;;;;;;;9.73;6.30;;;14.30;99.90;;;;;;5011763;28;20530;-73
2021/08/02 03:56:09;;;;;;;12.00;4.10;;;14.20;99.90;;;;;;5019175;28;20445;-73
2021/08/02 03:58:35;;;;;;;9.70;5.37;;;14.30;99.90;;;;;;5010960;28;20549;-73
2021/08/02 04:01:01;;;;;;;7.10;5.13;;;14.40;99.90;;;;;;5010851;28;21193;-73
2021/08/02 04:03:27;;;;;;;8.53;5.33;;;14.30;99.90;;;;;;5011984;28;20551;-73
2021/08/02 04:05:54;;;;;;;8.87;4.70;;;14.20;99.90;;;;;;5017673;28;20237;-73
2021/08/02 04:08:20;;;;;;;5.70;4.90;;;14.20;99.90;;;;;;5022988;28;20246;-73
2021/08/02 04:10:46;;;;;;;7.50;4.37;;;14.30;99.90;;;;;;5020644;28;20457;-73
2021/08/02 04:13:15;;;;;;;5.47;4.37;;;14.30;99.90;;;;;;5019605;28;20465;-73
2021/08/02 04:15:41;;;;;;;6.93;5.10;;;14.40;99.90;;;;;;5017692;28;20196;-74
2021/08/02 04:18:06;;;;;;;6.80;5.27;;;14.40;99.90;;;;;;5022324;28;21029;-72
2021/08/02 04:20:32;;;;;;;7.40;5.50;;;14.30;99.90;;;;;;5013012;28;20200;-72
2021/08/02 04:22:57;;;;;;;5.63;4.77;;;14.20;99.90;;;;;;5016846;28;20196;-73
2021/08/02 04:25:23;;;;;;;6.07;4.77;;;14.30;99.90;;;;;;5015740;28;20207;-73
2021/08/02 04:27:49;;;;;;;9.90;5.50;;;14.30;99.90;;;;;;5017457;28;20187;-73
2021/08/02 04:30:15;;;;;;;14.23;4.90;;;14.40;99.90;;;;;;5017988;28;20188;-73
2021/08/02 04:32:45;;;;;;;8.93;5.07;;;14.40;99.90;;;;;;5016688;28;20454;-73
2021/08/02 04:35:11;;;;;;;5.47;4.50;;;14.50;99.90;;;;;;5016480;28;20658;-73
2021/08/02 04:37:37;;;;;;;5.50;4.43;;;14.40;99.90;;;;;;5018358;28;22199;-73
2021/08/02 04:40:04;;;;;;;8.20;4.70;;;14.40;99.90;;;;;;5022187;28;20441;-73
2021/08/02 04:42:37;;;;;;;9.60;4.20;;;14.40;99.90;;;;;;5022762;28;20192;-73
2021/08/02 04:45:04;;;;;;;13.33;5.93;;;14.50;99.90;;;;;;5024798;28;20479;-73
2021/08/02 04:47:30;;;;;;;5.10;4.10;;;14.50;99.90;;;;;;5021300;28;21014;-73
2021/08/02 04:49:56;;;;;;;6.50;4.63;;;14.50;99.90;;;;;;5022656;28;20453;-73
2021/08/02 04:52:22;;;;;;;5.70;4.60;;;14.50;99.90;;;;;;5022771;28;20449;-73
2021/08/02 04:54:47;;;;;;;7.87;5.77;;;14.40;99.90;;;;;;5024020;28;20187;-72
2021/08/02 04:57:13;;;;;;;6.60;4.30;;;14.40;99.90;;;;;;5008884;28;20196;-73
2021/08/02 04:59:42;;;;;;;10.50;4.60;;;14.40;99.90;;;;;;5012074;28;20199;-73
2021/08/02 05:02:08;;;;;;;5.60;3.83;;;14.30;99.90;;;;;;5019590;28;20183;-73
2021/08/02 05:04:35;;;;;;;4.20;3.33;;;14.30;99.90;;;;;;5014565;28;21319;-73
2021/08/02 05:07:00;;;;;;;9.60;4.57;;;14.40;99.90;;;;;;5020360;28;20720;-72
2021/08/02 05:09:26;;;;;;;6.33;3.90;;;14.40;99.90;;;;;;5028727;28;22002;-72
2021/08/02 05:11:52;;;;;;;6.60;4.33;;;14.40;99.90;;;;;;5023703;28;20214;-72
2021/08/02 05:14:18;;;;;;;6.70;3.90;;;14.40;99.90;;;;;;5008931;28;22081;-72
2021/08/02 05:16:44;;;;;;;6.53;4.00;;;14.40;99.90;;;;;;5009968;28;20446;-72
2021/08/02 05:19:11;;;;;;;5.73;4.07;;;14.30;99.90;;;;;;5024230;28;20195;-72
2021/08/02 05:21:37;;;;;;;7.37;4.20;;;14.40;99.90;;;;;;5027602;28;20438;-72
2021/08/02 05:24:03;;;;;;;6.07;4.63;;;14.40;99.90;;;;;;5021559;28;21486;-73
2021/08/02 05:26:29;;;;;;;6.37;3.90;;;14.40;99.90;;;;;;5023584;28;20882;-72
2021/08/02 05:28:54;;;;;;;6.77;4.13;;;14.50;99.90;;;;;;5025505;28;20458;-73
2021/08/02 05:31:20;;;;;;;12.30;5.03;;;14.40;99.90;;;;;;5020923;28;20192;-73
2021/08/02 05:33:46;;;;;;;8.93;4.93;;;14.40;99.90;;;;;;5020139;28;20649;-72
2021/08/02 05:36:12;;;;;;;9.23;4.77;;;14.40;99.90;;;;;;5026456;28;20446;-73
2021/08/02 05:38:39;;;;;;;8.63;4.63;;;14.40;99.90;;;;;;5025990;28;20239;-73
2021/08/02 05:41:05;;;;;;;7.87;4.90;;;14.40;99.90;;;;;;5026173;28;20450;-72
2021/08/02 05:43:31;;;;;;;5.80;4.23;;;14.50;99.90;;;;;;5020316;28;20557;-73
2021/08/02 05:45:57;;;;;;;5.43;3.63;;;14.50;99.90;;;;;;5024537;28;20821;-72
2021/08/02 05:48:22;;;;;;;6.80;4.40;;;14.50;99.90;;;;;;5025141;28;20187;-72
2021/08/02 05:50:48;;;;;;;7.60;5.10;;;14.50;99.90;;;;;;5018552;28;20581;-72
2021/08/02 05:53:14;;;;;;;6.50;4.33;;;14.50;99.90;;;;;;5016903;28;20230;-72
2021/08/02 05:55:39;;;;;;;10.13;4.53;;;14.50;99.90;;;;;;5016423;28;20654;-72
2021/08/02 05:58:05;;;;;;;9.70;4.57;;;14.50;99.90;;;;;;5022810;28;22130;-72
2021/08/02 06:00:31;;;;;;;7.80;4.83;;;14.50;99.90;;;;;;5021839;28;20855;-72
2021/08/02 06:02:56;;;;;;;7.83;4.20;;;14.50;99.90;;;;;;5020851;28;20190;-73
2021/08/02 06:05:22;;;;;;;9.43;4.87;;;14.60;99.90;;;;;;5020979;28;20235;-72
2021/08/02 06:07:48;;;;;;;6.47;4.23;;;14.60;99.90;;;;;;5019986;28;20199;-72
2021/08/02 06:10:13;;;;;;;11.33;4.53;;;14.60;99.90;;;;;;5025829;28;20191;-73
2021/08/02 06:12:40;;;;;;;8.80;4.83;;;14.50;99.90;;;;;;5025951;28;20796;-72
2021/08/02 06:15:06;;;;;;;6.60;4.77;;;14.60;99.90;;;;;;5019276;28;20219;-72
2021/08/02 06:17:32;;;;;;;6.73;4.50;;;14.70;99.90;;;;;;5021828;28;20517;-73
2021/08/02 06:19:58;;;;;;;6.07;4.80;;;14.70;99.90;;;;;;5021764;28;21019;-72
2021/08/02 06:22:23;;;;;;;13.43;4.90;;;14.80;99.90;;;;;;5020690;28;20545;-72
2021/08/02 06:24:49;;;;;;;8.10;5.00;;;14.80;99.90;;;;;;5019878;28;20209;-72
2021/08/02 06:27:15;;;;;;;6.40;4.80;;;14.80;99.90;;;;;;5018393;28;20187;-72
2021/08/02 06:29:40;;;;;;;6.93;4.50;;;14.80;99.90;;;;;;5022652;28;20207;-72
2021/08/02 06:32:07;;;;;;;11.53;5.00;;;14.80;99.90;;;;;;5023757;28;20191;-73
2021/08/02 06:34:33;;;;;;;7.70;4.97;;;14.80;99.90;;;;;;5016925;28;20188;-72
2021/08/02 06:36:59;;;;;;;7.97;5.27;;;14.80;99.90;;;;;;5018703;28;20955;-72
2021/08/02 06:39:24;;;;;;;8.50;4.13;;;14.80;99.90;;;;;;5004794;28;20536;-72
2021/08/02 06:41:50;;;;;;;10.43;4.83;;;14.70;99.90;;;;;;5018609;28;20877;-71
2021/08/02 06:44:16;;;;;;;10.77;6.20;;;14.70;99.90;;;;;;5020674;28;20717;-71
2021/08/02 06:46:42;;;;;;;9.13;5.97;;;14.80;99.90;;;;;;5019561;28;20190;-72
2021/08/02 06:49:08;;;;;;;34.10;22.53;;;14.90;99.90;;;;;;5019754;28;20442;-73
2021/08/02 06:51:33;;;;;;;33.00;25.27;;;14.90;99.90;;;;;;5022773;28;20904;-72
2021/08/02 06:53:59;;;;;;;8.20;6.53;;;14.80;99.90;;;;;;5018992;28;20183;-73
2021/08/02 06:56:24;;;;;;;9.30;5.87;;;14.70;99.90;;;;;;5017642;28;20200;-72
2021/08/02 06:58:51;;;;;;;15.17;8.53;;;14.80;99.90;;;;;;5018114;28;20206;-73
2021/08/02 07:01:17;;;;;;;80.80;50.20;;;14.80;99.90;;;;;;5016979;28;20576;-73
2021/08/02 07:03:42;;;;;;;10.10;6.50;;;14.80;99.90;;;;;;5018855;28;21712;-72
2021/08/02 07:06:08;;;;;;;8.73;4.57;;;14.90;99.90;;;;;;5033997;28;20531;-72
2021/08/02 07:08:37;;;;;;;11.03;4.83;;;14.90;99.90;;;;;;5016042;28;20859;-72
2021/08/02 07:11:03;;;;;;;9.10;5.10;;;14.90;99.90;;;;;;5011801;28;20199;-73
2021/08/02 07:13:29;;;;;;;6.87;4.17;;;14.90;99.90;;;;;;5015278;28;20465;-72
2021/08/02 07:15:54;;;;;;;15.67;5.20;;;15.00;99.90;;;;;;5007064;28;20481;-73
2021/08/02 07:18:22;;;;;;;11.10;4.50;;;15.10;99.90;;;;;;5012103;28;20184;-73
2021/08/02 07:20:48;;;;;;;8.10;4.20;;;15.00;99.90;;;;;;5009551;28;20175;-73
2021/08/02 07:23:15;;;;;;;11.97;5.23;;;15.00;99.90;;;;;;5012058;28;20446;-73
2021/08/02 07:25:42;;;;;;;8.77;5.70;;;15.00;99.90;;;;;;5011260;28;20527;-73
2021/08/02 07:28:07;;;;;;;10.33;4.80;;;14.90;99.90;;;;;;5013400;28;20532;-72
2021/08/02 07:30:33;;;;;;;7.73;3.97;;;14.80;99.90;;;;;;5011203;28;20553;-73
2021/08/02 07:32:59;;;;;;;10.47;4.27;;;15.00;99.90;;;;;;5015355;28;20198;-73
2021/08/02 07:35:25;;;;;;;6.87;3.80;;;15.00;99.90;;;;;;5011591;28;20190;-73
2021/08/02 07:37:50;;;;;;;9.13;3.90;;;14.80;99.90;;;;;;5011412;28;20185;-73
2021/08/02 07:40:16;;;;;;;8.30;4.67;;;14.80;99.90;;;;;;5011684;28;20214;-72
2021/08/02 07:42:42;;;;;;;6.80;4.73;;;14.80;99.90;;;;;;4996784;28;20188;-73
2021/08/02 07:45:09;;;;;;;10.40;5.03;;;14.90;99.90;;;;;;5005030;28;21074;-73
2021/08/02 07:47:34;;;;;;;10.30;4.77;;;15.10;99.90;;;;;;5004740;28;20176;-73
2021/08/02 07:50:00;;;;;;;7.70;5.17;;;15.10;99.90;;;;;;5014910;28;20507;-72
2021/08/02 07:52:26;;;;;;;8.03;4.33;;;15.20;1.00;;;;;;5009292;28;20274;-73
2021/08/02 07:54:52;;;;;;;12.57;5.07;;;15.30;58.70;;;;;;5010019;28;20834;-73
2021/08/02 07:57:17;;;;;;;7.40;4.63;;;15.10;99.90;;;;;;5006573;28;20500;-73
2021/08/02 07:59:43;;;;;;;11.60;4.90;;;15.30;3.20;;;;;;5006546;28;20285;-73
2021/08/02 08:02:09;;;;;;;9.93;4.00;;;15.40;1.00;;;;;;5010336;28;20195;-73
2021/08/02 08:04:34;;;;;;;9.13;3.80;;;15.40;1.00;;;;;;5012863;28;20269;-71
2021/08/02 08:07:00;;;;;;;5.73;3.47;;;15.40;1.00;;;;;;5016282;28;20192;-72
2021/08/02 08:09:26;;;;;;;6.90;3.90;;;15.30;99.90;;;;;;5008717;28;20212;-71
2021/08/02 08:11:51;;;;;;;8.07;3.87;;;15.00;99.90;;;;;;5013242;28;20215;-73
2021/08/02 08:14:17;;;;;;;7.23;3.50;;;15.00;99.90;;;;;;5005681;28;20611;-71
2021/08/02 08:16:43;;;;;;;5.70;2.97;;;15.00;99.90;;;;;;5010497;28;20196;-72
2021/08/02 08:19:08;;;;;;;7.93;3.57;;;14.90;99.90;;;;;;5011648;28;20242;-71
2021/08/02 08:21:35;;;;;;;5.10;3.40;;;14.90;99.90;;;;;;5009509;28;20206;-72
2021/08/02 08:24:06;;;;;;;7.63;3.40;;;15.00;99.90;;;;;;5013205;28;20596;-72
2021/08/02 08:26:34;;;;;;;8.03;3.10;;;15.00;99.90;;;;;;5016679;28;20963;-72
2021/08/02 08:29:00;;;;;;;6.03;2.90;;;15.00;1.00;;;;;;5009307;28;20434;-72
2021/08/02 08:31:25;;;;;;;5.90;3.00;;;15.10;99.90;;;;;;5012292;28;20438;-72
2021/08/02 08:33:51;;;;;;;8.77;3.43;;;15.10;1.00;;;;;;5009680;28;20283;-72
2021/08/02 08:36:17;;;;;;;4.87;3.10;;;15.10;1.00;;;;;;5009596;28;20192;-71
2021/08/02 08:38:44;;;;;;;5.83;3.03;;;15.10;99.90;;;;;;5003433;28;20208;-72
2021/08/02 08:41:12;;;;;;;9.50;3.53;;;15.10;99.90;;;;;;5007599;28;20454;-71
2021/08/02 08:43:42;;;;;;;6.50;3.27;;;15.10;99.90;;;;;;5008166;28;20442;-71
2021/08/02 08:46:07;;;;;;;7.33;3.80;;;15.00;99.90;;;;;;5007117;28;20725;-71
2021/08/02 08:48:33;;;;;;;9.20;3.80;;;15.00;99.90;;;;;;5006088;28;20986;-72
2021/08/02 08:51:03;;;;;;;6.20;3.90;;;15.10;99.90;;;;;;5005255;28;20234;-72
2021/08/02 08:53:29;;;;;;;7.13;2.90;;;15.00;99.90;;;;;;5012943;28;20275;-71
2021/08/02 08:55:55;;;;;;;13.03;4.67;;;15.10;99.90;;;;;;5010632;28;20496;-71
2021/08/02 08:58:21;;;;;;;5.20;3.43;;;15.30;99.90;;;;;;4992726;28;20501;-72
2021/08/02 09:00:47;;;;;;;8.10;3.47;;;15.20;99.90;;;;;;5006499;28;21228;-72
2021/08/02 09:03:14;;;;;;;27.33;4.40;;;15.30;99.90;;;;;;5009506;28;20188;-72
2021/08/02 09:05:40;;;;;;;8.07;3.23;;;15.30;99.90;;;;;;5012663;28;20226;-71
2021/08/02 09:08:07;;;;;;;6.10;3.27;;;15.20;99.90;;;;;;5005576;28;20441;-72
2021/08/02 09:10:34;;;;;;;11.13;3.53;;;15.20;99.90;;;;;;5012251;28;20553;-72
2021/08/02 09:13:05;;;;;;;6.17;3.17;;;15.20;99.90;;;;;;5011841;28;20442;-72
2021/08/02 09:15:36;;;;;;;6.30;2.60;;;15.20;99.90;;;;;;5007016;28;20465;-71
2021/08/02 09:18:04;;;;;;;6.17;3.00;;;15.30;99.90;;;;;;5011181;28;20446;-72
2021/08/02 09:20:30;;;;;;;5.67;2.60;;;15.40;99.90;;;;;;5010315;28;21134;-72
2021/08/02 09:23:05;;;;;;;6.17;2.70;;;15.50;99.90;;;;;;5014071;28;20877;-72
2021/08/02 09:25:30;;;;;;;6.37;2.70;;;15.50;56.00;;;;;;5011918;28;20782;-72
2021/08/02 09:27:56;;;;;;;6.63;2.60;;;15.60;99.90;;;;;;5013846;28;20998;-72
2021/08/02 09:30:25;;;;;;;4.63;3.13;;;15.60;55.10;;;;;;5011475;28;20561;-72
2021/08/02 09:32:55;;;;;;;2.90;2.33;;;15.70;99.90;;;;;;4990366;28;20457;-71
2021/08/02 09:35:42;;;;;;;6.50;3.33;;;15.60;45.70;;;;;;5003859;28;20820;-71
2021/08/02 09:38:13;;;;;;;8.53;4.40;;;15.70;54.20;;;;;;5009873;28;20449;-72
2021/08/02 09:40:43;;;;;;;5.77;3.90;;;15.70;47.00;;;;;;4997615;28;20461;-71
2021/08/02 09:43:18;;;;;;;3.60;3.20;;;15.60;33.90;;;;;;5007531;28;21023;-71
2021/08/02 09:45:45;;;;;;;8.33;5.00;;;15.70;80.00;;;;;;5007206;28;22715;-72
2021/08/02 09:48:14;;;;;;;8.30;4.43;;;15.80;20.40;;;;;;5001356;28;20496;-72
2021/08/02 09:50:43;;;;;;;4.33;3.80;;;15.90;6.10;;;;;;5000980;28;20469;-72
2021/08/02 09:53:12;;;;;;;7.90;4.17;;;16.00;1.00;;;;;;5002317;28;20453;-72
2021/08/02 09:55:40;;;;;;;7.43;3.60;;;16.10;1.00;;;;;;4990037;28;21081;-72
2021/08/02 09:58:06;;;;;;;7.73;3.70;;;16.10;1.00;;;;;;4994103;28;20447;-72
2021/08/02 10:00:33;;;;;;;8.87;4.80;;;16.10;21.80;;;;;;5005638;28;20822;-72
2021/08/02 10:03:02;;;;;;;8.70;7.00;;;16.10;29.10;;;;;;5002303;28;21089;-72
2021/08/02 10:05:28;;;;;;;8.77;6.87;;;16.00;1.00;;;;;;4999266;28;20496;-71
2021/08/02 10:07:55;;;;;;;10.77;6.70;;;16.00;1.00;;;;;;5011531;28;20515;-71
2021/08/02 10:10:20;;;;;;;11.43;7.10;;;16.30;1.00;;;;;;5008747;28;20497;-71
2021/08/02 10:12:50;;;;;;;10.73;9.13;;;16.50;70.90;;;;;;5007785;28;20442;-72
2021/08/02 10:15:19;;;;;;;14.43;8.80;;;16.50;1.00;;;;;;5010041;28;20204;-71
2021/08/02 10:17:47;;;;;;;11.57;9.73;;;16.50;1.00;;;;;;5010331;28;20510;-71
2021/08/02 10:20:27;;;;;;;10.83;9.67;;;16.70;18.50;;;;;;4999604;28;20485;-71
2021/08/02 10:22:54;;;;;;;12.57;10.57;;;16.70;1.00;;;;;;5011506;28;20515;-71
2021/08/02 10:25:34;;;;;;;13.43;10.33;;;16.80;1.00;;;;;;5001242;28;20485;-73
2021/08/02 10:28:18;;;;;;;14.27;10.43;;;16.80;1.00;;;;;;5000628;28;20438;-73
2021/08/02 10:31:07;;;;;;;15.93;11.63;;;16.70;1.00;;;;;;5003093;28;20485;-73
2021/08/02 10:33:38;;;;;;;14.83;11.50;;;16.60;1.00;;;;;;5002888;28;20975;-73
2021/08/02 10:36:30;;;;;;;23.37;11.60;;;16.50;1.00;;;;;;5007595;28;20442;-73
2021/08/02 10:38:56;;;;;;;15.60;11.67;;;16.50;1.00;;;;;;5011606;28;21010;-73
2021/08/02 10:41:27;;;;;;;13.67;9.90;;;16.80;1.00;;;;;;5012713;28;20430;-73
2021/08/02 10:43:54;;;;;;;10.40;9.30;;;16.90;1.00;;;;;;5005953;28;20186;-73
2021/08/02 10:46:23;;;;;;;8.70;6.60;;;16.90;1.00;;;;;;5003401;28;20872;-73
2021/08/02 10:48:50;;;;;;;10.63;7.47;;;16.90;1.00;;;;;;5004914;28;22113;-73
2021/08/02 10:51:18;;;;;;;10.13;6.93;;;17.10;1.00;;;;;;5004417;28;20972;-73
2021/08/02 10:53:56;;;;;;;12.03;7.87;;;17.10;1.00;;;;;;5003033;28;20469;-73
2021/08/02 10:56:26;;;;;;;12.67;7.10;;;17.30;1.00;;;;;;5014163;28;20525;-73
2021/08/02 10:58:52;;;;;;;10.27;7.07;;;17.40;1.00;;;;;;5003463;28;20960;-73
2021/08/02 11:01:20;;;;;;;12.80;5.37;;;17.40;1.00;;;;;;4997823;28;20466;-73
2021/08/02 11:03:46;;;;;;;4.30;3.60;;;17.30;1.00;;;;;;5011472;28;20187;-74
2021/08/02 11:06:14;;;;;;;9.63;4.27;;;17.40;1.00;;;;;;5012320;28;20470;-73
2021/08/02 11:08:48;;;;;;;6.90;4.43;;;17.30;1.00;;;;;;5002988;28;20485;-73
2021/08/02 11:11:20;;;;;;;5.47;3.57;;;17.30;1.00;;;;;;5004671;28;20597;-73
2021/08/02 11:13:46;;;;;;;5.30;3.10;;;17.40;1.00;;;;;;5005496;28;20453;-73
2021/08/02 11:16:12;;;;;;;4.67;2.20;;;17.20;1.00;;;;;;5004179;28;20465;-72
2021/08/02 11:18:43;;;;;;;7.97;3.57;;;17.20;1.00;;;;;;5007709;28;20474;-73
2021/08/02 11:21:23;;;;;;;3.90;2.57;;;17.20;1.00;;;;;;5006835;28;20204;-73
2021/08/02 11:23:49;;;;;;;2.90;2.13;;;17.20;1.00;;;;;;4987000;28;20466;-73
2021/08/02 11:26:15;;;;;;;5.10;2.47;;;17.20;1.00;;;;;;5005345;28;20482;-73
2021/08/02 11:28:46;;;;;;;4.00;2.37;;;17.20;1.00;;;;;;5007034;28;20822;-73
2021/08/02 11:31:13;;;;;;;5.70;2.50;;;17.30;1.00;;;;;;5006434;28;20317;-73
2021/08/02 11:33:43;;;;;;;5.60;2.23;;;17.30;1.00;;;;;;5003551;28;20838;-73
2021/08/02 11:36:17;;;;;;;3.03;2.00;;;17.40;1.00;;;;;;5012235;28;20469;-73
2021/08/02 11:38:44;;;;;;;5.30;1.90;;;17.50;1.00;;;;;;5008135;28;20449;-74
2021/08/02 11:41:11;;;;;;;5.00;2.43;;;17.40;1.00;;;;;;5010628;28;20536;-73
2021/08/02 11:43:44;;;;;;;4.50;1.57;;;17.40;1.00;;;;;;5001279;28;20489;-73
2021/08/02 11:46:11;;;;;;;2.90;2.20;;;17.30;1.00;;;;;;5004226;28;21010;-73
2021/08/02 11:48:41;;;;;;;4.60;2.23;;;17.50;1.00;;;;;;5014609;28;20818;-73
2021/08/02 11:51:06;;;;;;;3.50;2.37;;;17.60;1.00;;;;;;5011559;28;20483;-73
2021/08/02 11:53:36;;;;;;;3.03;2.10;;;17.70;1.00;;;;;;5009002;28;20462;-73
2021/08/02 11:56:03;;;;;;;2.80;2.23;;;17.60;1.00;;;;;;5004852;28;20223;-73
2021/08/02 11:58:48;;;;;;;3.57;2.80;;;17.50;1.00;;;;;;5003851;28;20434;-73
2021/08/02 12:01:14;;;;;;;3.90;2.27;;;17.50;1.00;;;;;;5004378;28;20470;-73
2021/08/02 12:03:46;;;;;;;4.73;2.53;;;17.50;1.00;;;;;;5013407;28;20796;-73
2021/08/02 12:06:12;;;;;;;5.50;3.13;;;17.60;1.00;;;;;;5011783;28;20469;-73
2021/08/02 12:08:52;;;;;;;3.43;2.20;;;17.60;1.00;;;;;;5009726;28;21203;-73
2021/08/02 12:11:18;;;;;;;4.60;2.70;;;17.70;1.00;;;;;;5009353;28;20254;-73
2021/08/02 12:13:49;;;;;;;3.43;2.47;;;17.70;1.00;;;;;;5009813;28;20440;-73
2021/08/02 12:16:27;;;;;;;3.60;2.60;;;17.70;1.00;;;;;;5011746;28;20554;-74
2021/08/02 12:19:03;;;;;;;3.00;2.63;;;17.80;1.00;;;;;;4995775;28;20939;-74
2021/08/02 12:21:31;;;;;;;4.33;3.10;;;18.00;1.00;;;;;;5008381;28;20888;-73
2021/08/02 12:24:16;;;;;;;3.30;2.40;;;18.20;1.00;;;;;;5013575;28;20441;-73
2021/08/02 12:26:51;;;;;;;6.30;3.60;;;18.30;1.00;;;;;;5012530;28;20457;-73
2021/08/02 12:29:25;;;;;;;5.30;3.27;;;18.30;1.00;;;;;;5012496;28;20485;-73
2021/08/02 12:31:59;;;;;;;3.80;3.00;;;18.20;1.00;;;;;;5016691;28;20464;-73
2021/08/02 12:34:25;;;;;;;4.77;3.53;;;18.10;1.00;;;;;;5013041;28;20682;-73
2021/08/02 12:36:55;;;;;;;4.57;3.10;;;18.10;1.00;;;;;;5003307;28;20454;-73
2021/08/02 12:39:24;;;;;;;3.80;3.40;;;18.10;1.00;;;;;;5014553;28;20187;-73
2021/08/02 12:41:50;;;;;;;9.80;3.73;;;18.10;1.00;;;;;;4998091;28;21322;-73
2021/08/02 12:44:15;;;;;;;4.47;3.70;;;18.20;1.00;;;;;;4998276;28;21126;-73
2021/08/02 12:46:41;;;;;;;7.80;5.13;;;18.40;1.00;;;;;;5005149;28;20203;-73
2021/08/02 12:49:07;;;;;;;5.53;3.70;;;18.80;1.00;;;;;;5016011;28;20650;-73
2021/08/02 12:51:33;;;;;;;5.60;3.83;;;19.20;1.00;;;;;;5008244;28;20681;-73
2021/08/02 12:53:58;;;;;;;4.80;3.57;;;19.30;1.00;;;;;;5005881;28;20188;-72